Impacts METAR Board
IDs:

KMKN - Comanche Cnty, TX, US

Updated at: 1300 UTC 14 Dec 2019
Potential Impact None Slight Moderate High
Time 14/01Z 14/02Z 14/03Z 14/04Z 14/05Z 14/06Z 14/07Z 14/08Z 14/09Z 14/10Z 14/11Z 14/12Z 14/13Z
Temp59 58 50 55 50 52 41 44 43 42 37 40 40
Dewpt37 37 37 36 36 37 36 36 37 38 34 40 39
Altim29.86 29.87 29.88 29.89 29.88 29.89 29.88 29.88 29.89 29.89 29.87 29.89 29.87
VIS10 10 10 10 10 10 10 10 10 10 10 10 10
CIG-- -- -- -- -- -- -- -- -- -- -- -- --
CoverCLRCLRCLRCLRCLRCLRCLRCLRCLRCLRCLRCLRCLR
FltCatVFRVFRVFRVFRVFRVFRVFRVFRVFRVFRVFRVFRVFR
WX--------------------------
WDir00200190150036036036003600190
WSpd0 0 4 4 3 0 3 4 3 0 4 0 4
WGst-- -- -- -- -- -- -- -- -- -- -- -- --
Raw hourly METARs
KMKN 140055Z AUTO 00000KT 10SM CLR 15/03 A2986 RMK AO2 T01500030
KMKN 140155Z AUTO 00000KT 10SM CLR 14/03 A2987 RMK AO2 T01420026
KMKN 140255Z AUTO 20004KT 10SM CLR 10/03 A2988 RMK AO2 T01010026
KMKN 140355Z AUTO 19004KT 10SM CLR 13/02 A2989 RMK AO2 T01300021
KMKN 140455Z AUTO 15003KT 10SM CLR 10/02 A2988 RMK AO2 T00980023
KMKN 140555Z AUTO 00000KT 10SM CLR 11/03 A2989 RMK AO2 T01100026 10169 20080 402070080
KMKN 140655Z AUTO 36003KT 10SM CLR 05/02 A2988 RMK AO2 T00520020
KMKN 140755Z AUTO 36004KT 10SM CLR 07/02 A2988 RMK AO2 T00650024
KMKN 140855Z AUTO 36003KT 10SM CLR 06/03 A2989 RMK AO2 T00610029
KMKN 140955Z AUTO 00000KT 10SM CLR 06/03 A2989 RMK AO2 T00570034
KMKN 141055Z AUTO 36004KT 10SM CLR 03/01 A2987 RMK AO2 T00270012
KMKN 141155Z AUTO 00000KT 10SM CLR 05/04 A2989 RMK AO2 T00460043 10112 20020
KMKN 141255Z AUTO 19004KT 10SM CLR 04/04 A2987 RMK AO2 T00420041



Page loaded:  13:38 UTC  |   05:38 AM Pacific  |   06:38 AM Mountain  |   07:38 AM Central  |   08:38 AM Eastern

 

ADVISORIES

FORECASTS

FORECASTS

OBSERVATIONS

USER TOOLS

ABOUT US